Time;durP1;ratioP1;P1;durP2;ratioP2;P2;SDS_P1;SDS_P2;PMS_P1;PMS_P2;Temp;Humidity;BMP_temperature;BMP_pressure;BME280_temperature;BME280_humidity;BME280_pressure;Samples;Min_cycle;Max_cycle;Signal;HPM_P1;HPM_P2
2020/01/14 00:01:57;;;;;;;11.9;7.8;;;;;;;2.39;70.48926;962.4351;;;;
2020/01/14 00:04:22;;;;;;;11.6;8.4;;;;;;;2.07;71.18262;962.3588;;;;
2020/01/14 00:06:47;;;;;;;9.9;7.3;;;;;;;2.09;71.18652;962.2679;;;;
2020/01/14 00:09:12;;;;;;;13;8;;;;;;;2.22;70.66699;962.2726;;;;
2020/01/14 00:11:38;;;;;;;10.8;8;;;;;;;2.24;70.24609;962.238;;;;
2020/01/14 00:14:03;;;;;;;10.1;7.6;;;;;;;2.32;70.02832;962.2997;;;;
2020/01/14 00:16:28;;;;;;;10.4;7.8;;;;;;;2.39;69.91309;962.2836;;;;
2020/01/14 00:18:53;;;;;;;10.8;7.5;;;;;;;2.29;69.71289;962.2453;;;;
2020/01/14 00:21:18;;;;;;;10;8;;;;;;;2.28;69.67676;962.1958;;;;
2020/01/14 00:23:43;;;;;;;13;8.6;;;;;;;2.27;69.62793;962.1433;;;;
2020/01/14 00:26:08;;;;;;;12.2;8.4;;;;;;;2.39;68.88965;962.0652;;;;
2020/01/14 00:28:33;;;;;;;12.8;8.5;;;;;;;2.33;68.74121;962.0627;;;;
2020/01/14 00:30:58;;;;;;;12.4;8.4;;;;;;;2.46;68.45215;962.0338;;;;
2020/01/14 00:33:24;;;;;;;11.6;8.3;;;;;;;2.47;68.24707;962.0577;;;;
2020/01/14 00:35:49;;;;;;;14.1;8.9;;;;;;;2.5;67.8252;962.0421;;;;
2020/01/14 00:38:14;;;;;;;12.8;8.9;;;;;;;2.32;68.03906;962.0717;;;;
2020/01/14 00:40:39;;;;;;;12.4;8.8;;;;;;;2.39;67.83301;962.0435;;;;
2020/01/14 00:45:38;;;;;;;10.9;8.1;;;;;;;2.29;67.7373;962.092;;;;
2020/01/14 00:48:18;;;;;;;11.5;8.2;;;;;;;2.15;68.05762;962.0825;;;;
2020/01/14 00:50:19;;;;;;;14.3;9.1;;;;;;;2.22;67.82813;962.0553;;;;
2020/01/14 00:52:44;;;;;;;12.6;8.7;;;;;;;2.05;68.20313;962.0256;;;;
2020/01/14 00:55:24;;;;;;;11.8;8.2;;;;;;;2.01;68.65625;962.1408;;;;
2020/01/14 00:57:34;;;;;;;12.9;8.8;;;;;;;2.15;68.40234;962.0745;;;;
2020/01/14 01:00:00;;;;;;;10.4;8.2;;;;;;;1.98;68.52344;962.0625;;;;
2020/01/14 01:02:25;;;;;;;12.8;8.3;;;;;;;2.06;68.41113;962.0139;;;;
2020/01/14 01:04:50;;;;;;;12.5;8.4;;;;;;;2.07;68.18359;962.0402;;;;
2020/01/14 01:07:15;;;;;;;13.9;8.3;;;;;;;2.11;68.23438;962.0662;;;;
2020/01/14 01:09:40;;;;;;;12.3;7.9;;;;;;;2.1;68.00391;962.0361;;;;
2020/01/14 01:12:05;;;;;;;12.4;8;;;;;;;2.18;67.65039;962.1135;;;;
2020/01/14 01:14:31;;;;;;;10.2;7.6;;;;;;;2.2;67.7334;962.1167;;;;
2020/01/14 01:16:56;;;;;;;13.3;8.3;;;;;;;2.22;67.66699;962.1386;;;;
2020/01/14 01:19:21;;;;;;;10.6;8.1;;;;;;;2.21;67.94043;962.1102;;;;
2020/01/14 01:21:46;;;;;;;10.6;8;;;;;;;2.13;67.90625;962.2113;;;;
2020/01/14 01:24:53;;;;;;;10.1;7.7;;;;;;;2.19;67.96191;962.1987;;;;
2020/01/14 01:27:18;;;;;;;11.9;7.7;;;;;;;2.01;68.59863;962.2;;;;
2020/01/14 01:29:43;;;;;;;12;7.7;;;;;;;1.99;68.67578;962.2145;;;;
2020/01/14 01:32:08;;;;;;;11.2;7.7;;;;;;;2.02;68.70313;962.1919;;;;
2020/01/14 01:34:33;;;;;;;12.1;8.1;;;;;;;2.03;68.52051;962.1699;;;;
2020/01/14 01:36:58;;;;;;;11.8;7.9;;;;;;;1.9;68.55664;962.1349;;;;
2020/01/14 01:39:24;;;;;;;10.1;7.3;;;;;;;2.05;68.00684;962.1163;;;;
2020/01/14 01:41:48;;;;;;;9.4;7.1;;;;;;;2.03;67.68359;962.06;;;;
2020/01/14 01:44:14;;;;;;;13.1;7.5;;;;;;;1.94;68.05859;962.123;;;;
2020/01/14 01:46:39;;;;;;;9.7;7.2;;;;;;;2.12;67.39844;962.0544;;;;
2020/01/14 01:49:04;;;;;;;10.2;7.1;;;;;;;1.98;67.52441;962.0625;;;;
2020/01/14 01:51:29;;;;;;;10.2;6.9;;;;;;;1.89;67.85645;962.0187;;;;
2020/01/14 01:53:54;;;;;;;11.2;7.6;;;;;;;1.9;67.82227;961.9183;;;;
2020/01/14 01:56:28;;;;;;;11.2;6.9;;;;;;;1.82;67.93555;961.8191;;;;
2020/01/14 01:58:45;;;;;;;12.2;7.4;;;;;;;1.87;67.83887;961.8072;;;;
2020/01/14 02:01:16;;;;;;;10;7.1;;;;;;;1.86;67.9082;961.7471;;;;
2020/01/14 02:03:38;;;;;;;11.9;7.4;;;;;;;1.7;68.61621;961.7452;;;;
2020/01/14 02:06:13;;;;;;;9.1;6.8;;;;;;;1.72;68.62012;961.7352;;;;
2020/01/14 02:08:25;;;;;;;11.5;7.3;;;;;;;1.88;68.00391;961.6584;;;;
2020/01/14 02:10:50;;;;;;;11.1;6.8;;;;;;;1.98;67.57129;961.5706;;;;
2020/01/14 02:13:15;;;;;;;10.9;7.3;;;;;;;1.78;68.2627;961.5227;;;;
2020/01/14 02:15:40;;;;;;;10.6;6.9;;;;;;;1.92;67.84863;961.5544;;;;
2020/01/14 02:18:05;;;;;;;10;6.8;;;;;;;2.03;67.0957;961.5137;;;;
2020/01/14 02:20:30;;;;;;;9.1;6.6;;;;;;;2;66.79297;961.515;;;;
2020/01/14 02:22:55;;;;;;;9.5;6.8;;;;;;;2.08;66.41504;961.4708;;;;
2020/01/14 02:25:20;;;;;;;9.5;6.4;;;;;;;2.15;66.37988;961.5016;;;;
2020/01/14 02:27:45;;;;;;;10.1;6.5;;;;;;;2.15;66.62305;961.4539;;;;
2020/01/14 02:30:11;;;;;;;9.1;5.9;;;;;;;2.02;66.45117;961.3602;;;;
2020/01/14 02:32:36;;;;;;;8.4;6.4;;;;;;;1.98;66.66406;961.3781;;;;
2020/01/14 02:35:07;;;;;;;9.1;6.5;;;;;;;2.01;66.42676;961.3323;;;;
2020/01/14 02:37:32;;;;;;;9.3;6.2;;;;;;;2.05;66.77832;961.3677;;;;
2020/01/14 02:41:44;;;;;;;8.9;6.3;;;;;;;1.93;66.84082;961.3019;;;;
2020/01/14 02:44:09;;;;;;;9.2;6.7;;;;;;;1.98;67.24902;961.3173;;;;
2020/01/14 02:46:34;;;;;;;8.1;6.4;;;;;;;2.05;67.1123;961.2972;;;;
2020/01/14 02:48:59;;;;;;;9;6.1;;;;;;;2.06;66.84766;961.3033;;;;
2020/01/14 02:51:24;;;;;;;9;6.5;;;;;;;2.1;66.70508;961.2867;;;;
2020/01/14 02:53:49;;;;;;;9.8;6.6;;;;;;;2.03;67.01563;961.2522;;;;
2020/01/14 02:56:14;;;;;;;8.9;6.5;;;;;;;2.12;66.88184;961.2906;;;;
2020/01/14 02:58:39;;;;;;;9.9;6.5;;;;;;;2.09;66.35938;961.2484;;;;
2020/01/14 03:01:04;;;;;;;8.8;5.9;;;;;;;2.1;65.86719;961.2866;;;;
2020/01/14 03:03:29;;;;;;;8.6;5.8;;;;;;;2.13;65.79102;961.2814;;;;
2020/01/14 03:05:54;;;;;;;7.8;6;;;;;;;2.09;66.39453;961.3053;;;;
2020/01/14 03:08:19;;;;;;;8.2;6.1;;;;;;;2.1;66.47559;961.3108;;;;
2020/01/14 03:10:44;;;;;;;7.7;5.2;;;;;;;2.06;66.31934;961.3755;;;;
2020/01/14 03:13:09;;;;;;;8.7;5.9;;;;;;;2.07;66.64355;961.3278;;;;
2020/01/14 03:15:35;;;;;;;7.5;5.6;;;;;;;2.09;66.90918;961.3608;;;;
2020/01/14 03:18:00;;;;;;;8.5;5.8;;;;;;;2.03;67.0498;961.3342;;;;
2020/01/14 03:20:25;;;;;;;9.8;6;;;;;;;1.95;67.54297;961.3423;;;;
2020/01/14 03:22:50;;;;;;;8.7;6.2;;;;;;;1.99;67.75684;961.3426;;;;
2020/01/14 03:25:15;;;;;;;7.5;5.6;;;;;;;2.05;67.06543;961.2747;;;;
2020/01/14 03:27:40;;;;;;;8.1;5.9;;;;;;;1.95;67.25586;961.2509;;;;
2020/01/14 03:30:05;;;;;;;8.5;5.6;;;;;;;1.89;67.34961;961.2737;;;;
2020/01/14 03:32:30;;;;;;;8.3;6;;;;;;;1.93;67.19727;961.2217;;;;
2020/01/14 03:34:55;;;;;;;8.2;6;;;;;;;1.9;67.4541;961.2158;;;;
2020/01/14 03:37:20;;;;;;;7.4;6;;;;;;;1.89;67.32617;961.2003;;;;
2020/01/14 03:39:45;;;;;;;8.2;6;;;;;;;1.96;66.92383;961.1866;;;;
2020/01/14 03:42:10;;;;;;;8.7;5.7;;;;;;;1.96;66.90234;961.2025;;;;
2020/01/14 03:44:36;;;;;;;8.2;5.5;;;;;;;1.85;67.01074;961.1688;;;;
2020/01/14 03:47:01;;;;;;;7.6;5.5;;;;;;;1.96;67.21094;961.132;;;;
2020/01/14 03:49:35;;;;;;;8.5;5.5;;;;;;;1.83;66.74414;961.0907;;;;
2020/01/14 03:52:01;;;;;;;7.7;5.3;;;;;;;1.84;67.01953;961.04;;;;
2020/01/14 03:56:56;;;;;;;7.2;5;;;;;;;1.78;67.02246;960.9568;;;;
2020/01/14 03:59:11;;;;;;;7.4;4.9;;;;;;;1.95;66.50977;960.9044;;;;
2020/01/14 04:02:33;;;;;;;7.5;4.8;;;;;;;2.06;66.31934;960.8894;;;;
2020/01/14 04:04:52;;;;;;;6.8;4.9;;;;;;;2.1;65.93652;960.8846;;;;
2020/01/14 04:07:16;;;;;;;8.8;5.1;;;;;;;2.17;65.83301;960.8836;;;;
2020/01/14 04:09:41;;;;;;;6.5;4.7;;;;;;;2.07;66.0332;960.8755;;;;
2020/01/14 04:12:06;;;;;;;7.5;5;;;;;;;2.15;66.09277;960.9048;;;;
2020/01/14 04:14:31;;;;;;;8.1;4.8;;;;;;;2.15;66.0127;960.8429;;;;
2020/01/14 04:16:56;;;;;;;8.7;5.1;;;;;;;2.11;66.04004;960.8099;;;;
2020/01/14 04:19:21;;;;;;;8.7;4.3;;;;;;;2.1;66.21191;960.8461;;;;
2020/01/14 04:21:47;;;;;;;6.6;4.7;;;;;;;2.15;66.16211;960.8356;;;;
2020/01/14 04:24:12;;;;;;;6.4;4.5;;;;;;;2.09;65.93262;960.8474;;;;
2020/01/14 04:26:37;;;;;;;7.4;4.7;;;;;;;2.19;65.60547;960.9565;;;;
2020/01/14 04:29:02;;;;;;;7;4.6;;;;;;;2.18;65.65039;960.9572;;;;
2020/01/14 04:31:27;;;;;;;7.7;4.4;;;;;;;2.19;66.08691;960.9655;;;;
2020/01/14 04:33:52;;;;;;;10.7;4.5;;;;;;;2.19;65.97363;960.9389;;;;
2020/01/14 04:36:17;;;;;;;6.3;4.3;;;;;;;2.21;65.74609;960.9906;;;;
2020/01/14 04:38:42;;;;;;;6.4;4.3;;;;;;;2.23;65.57617;961.0266;;;;
2020/01/14 04:41:07;;;;;;;7.7;4.8;;;;;;;2.26;65.4668;960.9817;;;;
2020/01/14 04:43:32;;;;;;;6.2;5;;;;;;;2.21;65.88379;961.005;;;;
2020/01/14 04:45:57;;;;;;;6.8;4.6;;;;;;;2.12;65.91602;961.098;;;;
2020/01/14 04:48:22;;;;;;;7.4;4.6;;;;;;;2.03;66.42969;961.1761;;;;
2020/01/14 04:50:48;;;;;;;7.3;4.5;;;;;;;2.09;66.46289;961.1289;;;;
2020/01/14 04:53:13;;;;;;;7;4.7;;;;;;;1.99;67.11328;961.171;;;;
2020/01/14 04:55:38;;;;;;;8;4.7;;;;;;;2.03;67.18945;961.168;;;;
2020/01/14 04:58:03;;;;;;;9.6;4.8;;;;;;;2.06;67.13574;961.1283;;;;
2020/01/14 05:00:28;;;;;;;8;4.9;;;;;;;1.88;67.47559;961.1267;;;;
2020/01/14 05:02:53;;;;;;;7.2;4.7;;;;;;;1.89;67.24805;961.1077;;;;
2020/01/14 05:05:18;;;;;;;6;4.5;;;;;;;1.9;67.24805;961.1331;;;;
2020/01/14 05:07:43;;;;;;;6.7;4.9;;;;;;;1.96;67.0625;961.1345;;;;
2020/01/14 05:10:09;;;;;;;6.5;4.7;;;;;;;2.07;66.83887;961.1097;;;;
2020/01/14 05:12:34;;;;;;;9;5.2;;;;;;;2.05;67.14648;961.1205;;;;
2020/01/14 05:14:59;;;;;;;10;6.4;;;;;;;2;67.20703;961.1431;;;;
2020/01/14 05:17:24;;;;;;;9.1;5.7;;;;;;;1.99;67.14844;961.183;;;;
2020/01/14 05:19:49;;;;;;;7.8;5.1;;;;;;;1.79;67.78027;961.2357;;;;
2020/01/14 05:22:14;;;;;;;7.2;5.2;;;;;;;1.76;68.12109;961.2015;;;;
2020/01/14 05:24:39;;;;;;;8.2;4.9;;;;;;;1.78;67.92969;961.3073;;;;
2020/01/14 05:27:04;;;;;;;7.9;5;;;;;;;1.84;67.85938;961.3036;;;;
2020/01/14 05:29:30;;;;;;;8.4;4.7;;;;;;;1.59;67.99023;961.2872;;;;
2020/01/14 05:31:55;;;;;;;7.1;4.9;;;;;;;1.55;68.31641;961.3699;;;;
2020/01/14 05:34:24;;;;;;;8;5.2;;;;;;;1.67;68.08398;961.311;;;;
2020/01/14 05:36:46;;;;;;;10.1;5.5;;;;;;;1.54;68.19043;961.3033;;;;
2020/01/14 05:39:11;;;;;;;8.3;5.6;;;;;;;1.72;67.83984;961.295;;;;
2020/01/14 05:41:49;;;;;;;7.5;5.6;;;;;;;1.58;68.19629;961.3358;;;;
2020/01/14 05:46:43;;;;;;;5.2;4.6;;;;;;;1.58;68.13965;961.3197;;;;
2020/01/14 05:48:57;;;;;;;6.6;4.7;;;;;;;1.38;68.8418;961.3245;;;;
2020/01/14 05:51:16;;;;;;;4.7;3.5;;;;;;;1.29;68.99805;961.3524;;;;
2020/01/14 05:53:41;;;;;;;5.8;3.6;;;;;;;1.26;68.96875;961.3478;;;;
2020/01/14 05:56:06;;;;;;;5.3;3.2;;;;;;;1.21;69.40918;961.3451;;;;
2020/01/14 05:58:32;;;;;;;4.7;3.5;;;;;;;1.19;69.40723;961.3627;;;;
2020/01/14 06:00:57;;;;;;;5.3;3.5;;;;;;;1.39;68.87695;961.3387;;;;
2020/01/14 06:03:22;;;;;;;5.6;3.4;;;;;;;1.49;68.74414;961.3755;;;;
2020/01/14 06:05:47;;;;;;;5.4;3.5;;;;;;;1.56;68.57031;961.3677;;;;
2020/01/14 06:08:12;;;;;;;6.2;3.9;;;;;;;1.66;68.42676;961.3773;;;;
2020/01/14 06:10:37;;;;;;;6.3;3.7;;;;;;;1.58;68.73633;961.375;;;;
2020/01/14 06:13:02;;;;;;;6.1;4.3;;;;;;;1.64;68.48145;961.2913;;;;
2020/01/14 06:15:28;;;;;;;6.3;3.9;;;;;;;1.73;68.16211;961.3236;;;;
2020/01/14 06:17:53;;;;;;;6.6;4.4;;;;;;;1.77;67.87109;961.3606;;;;
2020/01/14 06:20:18;;;;;;;6.6;4.2;;;;;;;1.7;68.18164;961.3201;;;;
2020/01/14 06:22:43;;;;;;;6.7;4.2;;;;;;;1.67;68.23438;961.2924;;;;
2020/01/14 06:25:28;;;;;;;5.6;3.9;;;;;;;1.62;68.57031;961.3064;;;;
2020/01/14 06:27:53;;;;;;;6.3;4.2;;;;;;;1.65;68.32227;961.2651;;;;
2020/01/14 06:30:18;;;;;;;7.5;4.4;;;;;;;1.59;68.55273;961.2911;;;;
2020/01/14 06:32:43;;;;;;;7.8;4.1;;;;;;;1.51;69.27441;961.3474;;;;
2020/01/14 06:35:09;;;;;;;6.6;4;;;;;;;1.39;69.38184;961.3795;;;;
2020/01/14 06:37:34;;;;;;;13;5.1;;;;;;;1.41;69.38477;961.4084;;;;
2020/01/14 06:39:59;;;;;;;13.7;5.2;;;;;;;1.52;69.28906;961.4281;;;;
2020/01/14 06:42:24;;;;;;;8.3;4.6;;;;;;;1.59;68.4502;961.5045;;;;
2020/01/14 06:44:49;;;;;;;8.1;5.1;;;;;;;1.59;68.19727;961.4338;;;;
2020/01/14 06:47:25;;;;;;;7.6;4.5;;;;;;;1.58;67.85254;961.4719;;;;
2020/01/14 06:49:39;;;;;;;8;4.5;;;;;;;1.55;67.73242;961.4456;;;;
2020/01/14 06:52:04;;;;;;;7.9;4.9;;;;;;;1.6;67.87891;961.4631;;;;
2020/01/14 06:54:29;;;;;;;10.7;4.8;;;;;;;1.63;70.80957;961.4998;;;;
2020/01/14 06:56:55;;;;;;;10.7;5.1;;;;;;;1.75;69.38281;961.4311;;;;
2020/01/14 06:59:20;;;;;;;10.9;4.9;;;;;;;1.82;69.12012;961.4478;;;;
2020/01/14 07:01:45;;;;;;;10.8;4.5;;;;;;;1.94;67.49609;961.4445;;;;
2020/01/14 07:04:10;;;;;;;13.2;4.3;;;;;;;2.08;66.85156;961.4588;;;;
2020/01/14 07:06:35;;;;;;;9.7;4.6;;;;;;;2.15;66.10449;961.5497;;;;
2020/01/14 07:09:00;;;;;;;8.8;4.6;;;;;;;2.1;66.29102;961.5555;;;;
2020/01/14 07:11:25;;;;;;;8.8;5.1;;;;;;;2.15;66.55273;961.545;;;;
2020/01/14 07:13:51;;;;;;;9.6;4.9;;;;;;;2.2;66.08984;961.6183;;;;
2020/01/14 07:16:16;;;;;;;9.5;5.5;;;;;;;2.05;66.42285;961.5828;;;;
2020/01/14 07:18:41;;;;;;;8.7;5.6;;;;;;;1.96;66.75195;961.4778;;;;
2020/01/14 07:21:06;;;;;;;12.7;6.9;;;;;;;1.9;67.00781;961.4755;;;;
2020/01/14 07:23:31;;;;;;;14.3;7.6;;;;;;;1.86;67.33398;961.4368;;;;
2020/01/14 07:25:56;;;;;;;14.2;7.1;;;;;;;1.87;67.65723;961.3884;;;;
2020/01/14 07:28:21;;;;;;;14.1;7;;;;;;;3.14;63.55078;961.3417;;;;
2020/01/14 07:30:46;;;;;;;14.3;6.9;;;;;;;4.83;57.74414;961.353;;;;
2020/01/14 07:33:11;;;;;;;12.5;6.2;;;;;;;4.42;57.8623;961.403;;;;
2020/01/14 07:35:36;;;;;;;16;6.6;;;;;;;4.99;56.93457;961.3719;;;;
2020/01/14 07:38:01;;;;;;;11.4;5.9;;;;;;;5.92;53.85742;961.4405;;;;
2020/01/14 07:40:27;;;;;;;16;6.7;;;;;;;7.51;49.08691;961.4168;;;;
2020/01/14 07:42:53;;;;;;;15;6.6;;;;;;;7.63;48.43848;961.4777;;;;
2020/01/14 07:45:25;;;;;;;15.2;6.7;;;;;;;6.78;50.30469;961.4568;;;;
2020/01/14 07:52:49;;;;;;;10.4;5.5;;;;;;;3.83;58.64844;961.4947;;;;
2020/01/14 07:55:00;;;;;;;11.8;5.6;;;;;;;3.21;61.38379;961.5234;;;;
2020/01/14 07:57:26;;;;;;;9.1;5.7;;;;;;;2.95;62.08398;961.5886;;;;
2020/01/14 08:00:07;;;;;;;10.9;4.8;;;;;;;2.97;62.20215;961.5991;;;;
2020/01/14 08:02:16;;;;;;;9.8;5;;;;;;;3.04;62.55762;961.7065;;;;
2020/01/14 08:04:40;;;;;;;10.4;4.9;;;;;;;3.06;62.3877;961.6839;;;;
2020/01/14 08:07:03;;;;;;;10.1;4.8;;;;;;;3.1;62.41699;961.7467;;;;
2020/01/14 08:09:28;;;;;;;6.6;4.7;;;;;;;3.03;62.52051;961.7953;;;;
2020/01/14 08:11:53;;;;;;;9.9;4.7;;;;;;;3.08;63.96777;961.8176;;;;
2020/01/14 08:14:19;;;;;;;10.5;5.2;;;;;;;2.84;63.39258;961.8279;;;;
2020/01/14 08:16:44;;;;;;;7.6;4.5;;;;;;;2.65;64.05371;961.9203;;;;
2020/01/14 08:19:09;;;;;;;9.1;4.8;;;;;;;2.75;63.95215;961.9096;;;;
2020/01/14 08:21:34;;;;;;;10.3;4.6;;;;;;;2.73;63.89355;961.93;;;;
2020/01/14 08:23:59;;;;;;;7.1;4.1;;;;;;;2.75;63.68848;961.8975;;;;
2020/01/14 08:26:24;;;;;;;9.4;4.4;;;;;;;2.84;63.41504;961.9099;;;;
2020/01/14 08:28:49;;;;;;;10.3;4;;;;;;;2.87;63.53418;961.9305;;;;
2020/01/14 08:31:14;;;;;;;8.2;3.9;;;;;;;3.02;62.68066;961.8939;;;;
2020/01/14 08:33:39;;;;;;;9.6;4.4;;;;;;;3.6;61.2666;961.949;;;;
2020/01/14 08:36:05;;;;;;;8.3;4.4;;;;;;;6.63;52.54102;962.0533;;;;
2020/01/14 08:38:30;;;;;;;7.8;4.2;;;;;;;9.65;44.48926;961.9494;;;;
2020/01/14 08:43:06;;;;;;;9.3;5.1;;;;;;;6.89;49.41309;961.8219;;;;
2020/01/14 08:45:31;;;;;;;11;4.4;;;;;;;10.84;41.3291;961.9203;;;;
2020/01/14 08:47:56;;;;;;;7.6;4.3;;;;;;;15.62;31.83691;961.8435;;;;
2020/01/14 08:50:21;;;;;;;6.9;3.7;;;;;;;17.77;27.46484;961.8425;;;;
2020/01/14 08:52:46;;;;;;;13.2;3.6;;;;;;;19.74;24.48828;961.8681;;;;
2020/01/14 08:55:11;;;;;;;10.7;3.1;;;;;;;20;24.02344;961.8322;;;;
2020/01/14 08:57:36;;;;;;;5.5;2.5;;;;;;;19.48;23.74414;961.7971;;;;
2020/01/14 09:00:01;;;;;;;6.8;2.5;;;;;;;17.46;26.55273;961.6852;;;;
2020/01/14 09:02:26;;;;;;;5.5;2.4;;;;;;;12.69;33.50879;961.7497;;;;
2020/01/14 09:04:51;;;;;;;4.7;2.4;;;;;;;10.68;38.3125;961.7776;;;;
2020/01/14 09:07:17;;;;;;;5.6;2.1;;;;;;;9.57;40.97363;961.8183;;;;
2020/01/14 09:09:42;;;;;;;4.7;2.2;;;;;;;8.78;42.85938;961.8251;;;;
2020/01/14 09:14:38;;;;;;;5.4;2.4;;;;;;;7.99;45.09961;961.9207;;;;
2020/01/14 09:19:32;;;;;;;4;2.4;;;;;;;7.55;46.36914;961.908;;;;
2020/01/14 09:21:51;;;;;;;3.8;2.3;;;;;;;7.43;47.28711;961.9124;;;;
2020/01/14 09:24:16;;;;;;;3.9;2.3;;;;;;;7.35;47.78809;961.96;;;;
2020/01/14 09:29:03;;;;;;;4.8;2.4;;;;;;;7.47;47.24512;962.0828;;;;
2020/01/14 09:31:28;;;;;;;5.5;2.2;;;;;;;7.54;47.36914;962.1306;;;;
2020/01/14 09:33:53;;;;;;;5;2.1;;;;;;;7.81;46.15137;962.1487;;;;
2020/01/14 09:36:18;;;;;;;5.3;2.2;;;;;;;7.94;46.02637;962.1301;;;;
2020/01/14 09:38:43;;;;;;;3.1;2.2;;;;;;;7.98;45.90234;962.1981;;;;
2020/01/14 09:41:08;;;;;;;6.4;2;;;;;;;8.1;45.57813;962.3354;;;;
2020/01/14 09:43:33;;;;;;;4.1;2;;;;;;;8.13;45.3125;962.3201;;;;
2020/01/14 09:45:58;;;;;;;2.7;2;;;;;;;8.05;45.26953;962.3797;;;;
2020/01/14 09:48:23;;;;;;;4.1;2.4;;;;;;;8.15;45.54785;962.3045;;;;
2020/01/14 09:50:50;;;;;;;3.8;2.4;;;;;;;8.11;45.6709;962.2575;;;;
2020/01/14 09:53:14;;;;;;;5.6;2.4;;;;;;;8.26;45.85156;962.2803;;;;
2020/01/14 09:55:39;;;;;;;5.7;2.4;;;;;;;8.35;45.7793;962.3645;;;;
2020/01/14 09:58:04;;;;;;;4.7;2.4;;;;;;;8.46;45.25391;962.4565;;;;
2020/01/14 10:00:29;;;;;;;4.1;2.1;;;;;;;8.67;44.9502;962.5021;;;;
2020/01/14 10:02:54;;;;;;;3.4;2.2;;;;;;;8.65;44.77344;962.4886;;;;
2020/01/14 10:05:19;;;;;;;3.9;2.1;;;;;;;8.94;44.4043;962.4118;;;;
2020/01/14 10:07:44;;;;;;;6;2.3;;;;;;;8.99;44.10645;962.3102;;;;
2020/01/14 10:10:09;;;;;;;5.1;2.4;;;;;;;8.68;43.99414;962.2664;;;;
2020/01/14 10:12:34;;;;;;;6.7;2.5;;;;;;;8.75;44.07031;962.2731;;;;
2020/01/14 10:15:00;;;;;;;6.1;2.5;;;;;;;8.9;43.79492;962.2809;;;;
2020/01/14 10:17:25;;;;;;;7;2.5;;;;;;;8.82;44.39258;962.2542;;;;
2020/01/14 10:19:50;;;;;;;3.4;2.4;;;;;;;8.78;44.73926;962.2427;;;;
2020/01/14 10:22:15;;;;;;;5.4;2.4;;;;;;;8.7;45.17383;962.2394;;;;
2020/01/14 10:24:40;;;;;;;7.2;2.6;;;;;;;8.68;44.98633;962.2339;;;;
2020/01/14 10:27:05;;;;;;;5.6;2.5;;;;;;;8.75;44.49023;962.1982;;;;
2020/01/14 10:29:30;;;;;;;5.8;2.3;;;;;;;8.88;44.87793;962.252;;;;
2020/01/14 10:31:55;;;;;;;4.3;2.4;;;;;;;9.07;44.16211;962.2558;;;;
2020/01/14 10:34:20;;;;;;;4.2;2.3;;;;;;;9.21;43.83691;962.3312;;;;
2020/01/14 10:36:46;;;;;;;5.6;2.5;;;;;;;9.3;43.77539;962.3044;;;;
2020/01/14 10:39:11;;;;;;;8.1;2.4;;;;;;;9.33;43.59082;962.2322;;;;
2020/01/14 10:41:36;;;;;;;8.6;2.5;;;;;;;9.33;43.80273;962.2603;;;;
2020/01/14 10:44:01;;;;;;;4.4;2.3;;;;;;;9.44;43.63867;962.3416;;;;
2020/01/14 10:46:26;;;;;;;5;2.5;;;;;;;9.38;43.5625;962.2764;;;;
2020/01/14 10:48:51;;;;;;;6.5;2.3;;;;;;;9.48;44.0293;962.233;;;;
2020/01/14 10:51:17;;;;;;;5.8;2.2;;;;;;;9.32;43.69629;962.1855;;;;
2020/01/14 10:53:42;;;;;;;4;2.2;;;;;;;9.1;43.86133;962.171;;;;
2020/01/14 10:56:11;;;;;;;7;2.4;;;;;;;9.14;44.00488;962.2435;;;;
2020/01/14 11:03:35;;;;;;;8.3;2.7;;;;;;;9.07;44.99023;962.1255;;;;
2020/01/14 11:05:59;;;;;;;6.7;2.5;;;;;;;9.14;45.47754;962.1046;;;;
2020/01/14 11:08:24;;;;;;;5.2;2.4;;;;;;;9.09;45.51855;961.9749;;;;
2020/01/14 11:10:49;;;;;;;5.2;2.7;;;;;;;9.1;45.70703;961.9146;;;;
2020/01/14 11:13:17;;;;;;;7.2;2.6;;;;;;;9.13;45.58105;961.8873;;;;
2020/01/14 11:18:11;;;;;;;5.3;2.5;;;;;;;9.25;45.43066;961.823;;;;
2020/01/14 11:20:39;;;;;;;7.3;2.7;;;;;;;9.31;45.36719;961.7395;;;;
2020/01/14 11:22:58;;;;;;;4.4;2.3;;;;;;;9.3;42.95801;961.6914;;;;
2020/01/14 11:25:21;;;;;;;6.7;2.6;;;;;;;9.38;43.67871;961.7823;;;;
2020/01/14 11:27:57;;;;;;;5.7;2.5;;;;;;;9.46;43.57031;961.777;;;;
2020/01/14 11:32:36;;;;;;;6.8;2.6;;;;;;;9.63;43.10742;961.7317;;;;
2020/01/14 11:35:00;;;;;;;7.9;2.8;;;;;;;9.67;42.23535;961.7351;;;;
2020/01/14 11:37:25;;;;;;;8.1;2.8;;;;;;;9.74;42.06543;961.7555;;;;
2020/01/14 11:39:50;;;;;;;4.5;2.5;;;;;;;9.7;41.92285;961.7366;;;;
2020/01/14 11:42:15;;;;;;;4.8;2.7;;;;;;;9.73;42.19434;961.6729;;;;
2020/01/14 11:44:40;;;;;;;5;2.7;;;;;;;9.82;42.13281;961.7042;;;;
2020/01/14 11:47:05;;;;;;;6.7;2.8;;;;;;;9.86;42.84961;961.6613;;;;
2020/01/14 11:49:30;;;;;;;6.7;2.8;;;;;;;9.92;42.27051;961.6916;;;;
2020/01/14 11:51:55;;;;;;;4.8;2.8;;;;;;;10;41.55273;961.6873;;;;
2020/01/14 11:54:21;;;;;;;5.4;2.8;;;;;;;10.09;40.84668;961.6749;;;;
2020/01/14 11:56:46;;;;;;;6.1;2.8;;;;;;;10.35;40.86035;961.7299;;;;
2020/01/14 11:59:11;;;;;;;4.6;2.7;;;;;;;10.49;40.61523;961.7145;;;;
2020/01/14 12:01:36;;;;;;;4.1;2.6;;;;;;;10.78;39.35352;961.6179;;;;
2020/01/14 12:04:01;;;;;;;4.9;2.7;;;;;;;10.95;39.13379;961.5659;;;;
2020/01/14 12:06:26;;;;;;;6.3;2.8;;;;;;;11.15;37.95508;961.5332;;;;
2020/01/14 12:08:51;;;;;;;6.7;2.5;;;;;;;11.25;37.59961;961.519;;;;
2020/01/14 12:11:16;;;;;;;4.5;2.5;;;;;;;11.49;38.20801;961.5439;;;;
2020/01/14 12:13:41;;;;;;;3.3;2.3;;;;;;;11.55;37.40234;961.5134;;;;
2020/01/14 12:16:07;;;;;;;5.5;2.6;;;;;;;11.84;37.39258;961.5259;;;;
2020/01/14 12:18:32;;;;;;;3.2;2.3;;;;;;;11.9;37.15039;961.4871;;;;
2020/01/14 12:20:57;;;;;;;7.5;2.4;;;;;;;11.96;37.36719;961.5786;;;;
2020/01/14 12:23:22;;;;;;;5.6;2.7;;;;;;;12.01;36.72559;961.5242;;;;
2020/01/14 12:25:47;;;;;;;3.8;2.2;;;;;;;11.92;37.11719;961.5784;;;;
2020/01/14 12:28:14;;;;;;;3.8;2.2;;;;;;;12.18;35.85742;961.5047;;;;
2020/01/14 12:30:46;;;;;;;3.7;2.1;;;;;;;12.25;35.25098;961.5923;;;;
2020/01/14 12:33:13;;;;;;;3.1;2.2;;;;;;;12.31;34.79785;961.5058;;;;
2020/01/14 12:35:41;;;;;;;3.8;2.2;;;;;;;12.47;34.98535;961.4078;;;;
2020/01/14 12:37:59;;;;;;;4.9;2.7;;;;;;;12.54;35.2041;961.3734;;;;
2020/01/14 12:47:40;;;;;;;3.9;2;;;;;;;12.01;34.98438;961.4084;;;;
2020/01/14 12:50:06;;;;;;;4.3;1.9;;;;;;;12.03;35.38574;961.3884;;;;
2020/01/14 12:52:24;;;;;;;3.1;1.8;;;;;;;12.05;35.8584;961.3826;;;;
2020/01/14 12:54:48;;;;;;;5.5;2.2;;;;;;;12.08;35.77832;961.3705;;;;
2020/01/14 12:57:13;;;;;;;3.4;1.9;;;;;;;12.07;34.33105;961.3414;;;;
2020/01/14 12:59:38;;;;;;;4.3;2;;;;;;;12.14;35.08887;961.3864;;;;
2020/01/14 13:02:03;;;;;;;3.6;1.9;;;;;;;12.21;34.98828;961.472;;;;
2020/01/14 13:04:29;;;;;;;3.7;1.7;;;;;;;12.38;35.13184;961.4711;;;;
2020/01/14 13:06:54;;;;;;;3.6;1.7;;;;;;;12.42;35.3584;961.4853;;;;
2020/01/14 13:09:19;;;;;;;3.6;2;;;;;;;12.47;35.375;961.5325;;;;
2020/01/14 13:11:44;;;;;;;4.3;1.9;;;;;;;12.45;35.00879;961.4866;;;;
2020/01/14 13:14:09;;;;;;;4;1.7;;;;;;;12.54;34.55664;961.4641;;;;
2020/01/14 13:16:34;;;;;;;5.2;1.9;;;;;;;12.49;34.44629;961.4366;;;;
2020/01/14 13:19:00;;;;;;;3.2;1.7;;;;;;;12.6;34.83203;961.3889;;;;
2020/01/14 13:21:25;;;;;;;3.5;1.9;;;;;;;12.78;34.62305;961.4384;;;;
2020/01/14 13:23:50;;;;;;;3.9;1.9;;;;;;;12.91;34.0918;961.4921;;;;
2020/01/14 13:26:15;;;;;;;4.5;1.7;;;;;;;12.92;34.1748;961.4454;;;;
2020/01/14 13:28:40;;;;;;;2.6;1.6;;;;;;;13.02;34.46484;961.5056;;;;
2020/01/14 13:31:06;;;;;;;2.7;1.7;;;;;;;12.97;34.55469;961.4364;;;;
2020/01/14 13:33:31;;;;;;;5.5;1.8;;;;;;;12.94;35.03613;961.4433;;;;
2020/01/14 13:35:56;;;;;;;4.6;2;;;;;;;12.93;34.36426;961.4872;;;;
2020/01/14 13:38:21;;;;;;;3.5;1.6;;;;;;;12.75;33.38379;961.5294;;;;
2020/01/14 13:40:46;;;;;;;2.7;1.5;;;;;;;12.78;33.51465;961.4584;;;;
2020/01/14 13:45:37;;;;;;;4.4;1.5;;;;;;;12.72;32.89746;961.4835;;;;
2020/01/14 13:48:01;;;;;;;2.6;1.5;;;;;;;12.8;32.29102;961.4489;;;;
2020/01/14 13:50:26;;;;;;;1.8;1.4;;;;;;;12.73;32.11035;961.4634;;;;
2020/01/14 13:52:52;;;;;;;4;1.6;;;;;;;12.84;31.82324;961.4983;;;;
2020/01/14 13:55:17;;;;;;;2.9;1.4;;;;;;;12.89;31.72168;961.4871;;;;
2020/01/14 13:57:42;;;;;;;3.8;1.5;;;;;;;12.87;32.63867;961.5772;;;;
2020/01/14 14:00:07;;;;;;;3.4;1.9;;;;;;;12.9;31.25;961.5775;;;;
2020/01/14 14:02:32;;;;;;;2.9;1.7;;;;;;;12.83;31.11523;961.5995;;;;
2020/01/14 14:04:57;;;;;;;4.2;1.7;;;;;;;12.79;31.57227;961.6239;;;;
2020/01/14 14:07:22;;;;;;;2.6;1.7;;;;;;;12.75;31.79395;961.6211;;;;
2020/01/14 14:09:47;;;;;;;3.1;1.8;;;;;;;12.91;32.06445;961.7043;;;;
2020/01/14 14:12:12;;;;;;;3;1.9;;;;;;;12.78;32.53809;961.6866;;;;
2020/01/14 14:14:37;;;;;;;5.5;2;;;;;;;12.84;32.36523;961.722;;;;
2020/01/14 14:17:03;;;;;;;4.4;1.9;;;;;;;12.79;32.71484;961.7285;;;;
2020/01/14 14:19:28;;;;;;;3;1.7;;;;;;;12.83;32.76465;961.7675;;;;
2020/01/14 14:21:53;;;;;;;3.3;1.6;;;;;;;12.72;33.19238;961.7903;;;;
2020/01/14 14:24:19;;;;;;;4.9;2;;;;;;;12.47;32.69043;961.8334;;;;
2020/01/14 14:26:44;;;;;;;4.4;1.8;;;;;;;12.52;33.08301;961.8674;;;;
2020/01/14 14:29:11;;;;;;;2.9;1.7;;;;;;;12.3;32.71387;961.8739;;;;
2020/01/14 14:34:12;;;;;;;1.7;1.3;;;;;;;12.17;32.83203;961.8783;;;;
2020/01/14 14:36:26;;;;;;;2.5;1.4;;;;;;;12.12;33.14746;961.9344;;;;
2020/01/14 14:38:49;;;;;;;4.1;1.4;;;;;;;11.99;33.00684;961.9459;;;;
2020/01/14 14:41:32;;;;;;;3.1;1.6;;;;;;;11.97;33.27637;961.97;;;;
2020/01/14 14:46:07;;;;;;;2.8;1.5;;;;;;;11.85;33.78516;961.9833;;;;
2020/01/14 14:48:30;;;;;;;4;1.6;;;;;;;11.82;33.86426;961.9514;;;;
2020/01/14 14:50:55;;;;;;;5.4;1.5;;;;;;;11.72;33.66895;961.9305;;;;
2020/01/14 14:53:20;;;;;;;5.5;1.6;;;;;;;11.65;33.75684;961.8684;;;;
2020/01/14 14:55:45;;;;;;;4.1;1.6;;;;;;;11.54;33.65527;961.951;;;;
2020/01/14 14:58:10;;;;;;;3.3;1.7;;;;;;;11.49;34.10938;961.9872;;;;
2020/01/14 15:00:35;;;;;;;4.3;1.8;;;;;;;11.42;34.08008;961.9769;;;;
2020/01/14 15:03:00;;;;;;;4.5;1.9;;;;;;;11.39;34.61719;962.0172;;;;
2020/01/14 15:05:26;;;;;;;5;1.8;;;;;;;11.36;35.18945;962.0034;;;;
2020/01/14 15:07:51;;;;;;;6.7;1.9;;;;;;;11.31;35.05762;962.089;;;;
2020/01/14 15:10:16;;;;;;;5.8;2;;;;;;;11.34;35.68164;962.0737;;;;